createdAt,value
2023-03-21T00:02:00.872Z,8.40
2023-03-21T00:04:33.141Z,8.40
2023-03-21T00:07:05.501Z,8.40
2023-03-21T00:09:32.670Z,8.40
2023-03-21T00:12:01.650Z,8.30
2023-03-21T00:14:30.782Z,8.20
2023-03-21T00:16:58.310Z,8.30
2023-03-21T00:19:26.565Z,8.30
2023-03-21T00:22:06.918Z,8.40
2023-03-21T00:24:36.804Z,8.30
2023-03-21T00:27:26.906Z,8.30
2023-03-21T00:29:51.431Z,8.30
2023-03-21T00:32:20.970Z,8.20
2023-03-21T00:35:01.379Z,8.20
2023-03-21T00:37:34.188Z,8.20
2023-03-21T00:40:01.697Z,8.20
2023-03-21T00:42:30.707Z,8.20
2023-03-21T00:44:57.812Z,8.20
2023-03-21T00:47:25.985Z,8.20
2023-03-21T00:49:54.429Z,8.20
2023-03-21T00:52:37.971Z,8.20
2023-03-21T00:55:07.953Z,8.20
2023-03-21T00:57:39.381Z,8.20
2023-03-21T01:00:12.445Z,8.30
2023-03-21T01:03:02.648Z,8.30
2023-03-21T01:06:04.921Z,8.40
2023-03-21T01:08:50.631Z,8.40
2023-03-21T01:11:22.591Z,8.40
2023-03-21T01:13:56.123Z,8.40
2023-03-21T01:16:27.495Z,8.50
2023-03-21T01:18:55.022Z,8.50
2023-03-21T01:21:22.329Z,8.50
2023-03-21T01:23:49.850Z,8.50
2023-03-21T01:26:17.194Z,8.40
2023-03-21T01:28:45.654Z,8.50
2023-03-21T01:31:15.265Z,8.60
2023-03-21T01:33:43.964Z,8.60
2023-03-21T01:36:23.520Z,8.60
2023-03-21T01:38:53.948Z,8.60
2023-03-21T01:41:43.103Z,8.60
2023-03-21T01:44:29.850Z,8.60
2023-03-21T01:47:10.908Z,8.60
2023-03-21T01:50:01.802Z,8.60
2023-03-21T01:52:50.004Z,8.60
2023-03-21T01:55:24.954Z,8.60
2023-03-21T01:58:05.788Z,8.60
2023-03-21T02:00:47.533Z,8.50
2023-03-21T02:03:38.362Z,8.50
2023-03-21T02:06:54.518Z,8.40
2023-03-21T02:09:33.575Z,8.50
2023-03-21T02:12:02.061Z,8.40
2023-03-21T02:14:34.552Z,8.50
2023-03-21T02:17:20.719Z,8.50
2023-03-21T02:20:15.328Z,8.50
2023-03-21T02:23:09.683Z,8.50
2023-03-21T02:26:14.017Z,8.40
2023-03-21T02:28:57.640Z,8.40
2023-03-21T02:31:28.688Z,8.40
2023-03-21T02:34:27.662Z,8.40
2023-03-21T02:37:02.235Z,8.30
2023-03-21T02:39:52.558Z,8.30
2023-03-21T02:42:37.513Z,8.20
2023-03-21T02:45:26.886Z,8.20
2023-03-21T02:48:10.070Z,8.20
2023-03-21T02:50:52.695Z,8.20
2023-03-21T02:53:23.317Z,8.20
2023-03-21T02:55:53.488Z,8.20
2023-03-21T02:58:24.488Z,8.20
2023-03-21T03:00:56.671Z,8.20
2023-03-21T03:03:39.444Z,8.10
2023-03-21T03:06:18.832Z,8.20
2023-03-21T03:09:14.112Z,8.20
2023-03-21T03:11:44.680Z,8.10
2023-03-21T03:14:59.906Z,8.10
2023-03-21T03:17:30.679Z,8.10
2023-03-21T03:20:16.658Z,8.10
2023-03-21T03:22:58.580Z,8.10
2023-03-21T03:26:04.339Z,8.10
2023-03-21T03:28:40.550Z,8.20
2023-03-21T03:31:16.796Z,8.20
2023-03-21T03:33:56.616Z,8.20
2023-03-21T03:36:32.455Z,8.20
2023-03-21T03:39:09.280Z,8.20
2023-03-21T03:42:10.027Z,8.20
2023-03-21T03:44:43.094Z,8.20
2023-03-21T03:47:29.902Z,8.20
2023-03-21T03:50:13.134Z,8.20
2023-03-21T03:52:55.856Z,8.20
2023-03-21T03:55:28.239Z,8.10
2023-03-21T03:58:01.969Z,8.10
2023-03-21T04:00:33.405Z,8.10
2023-03-21T04:03:00.948Z,8.20
2023-03-21T04:05:28.832Z,8.10
2023-03-21T04:07:57.089Z,8.10
2023-03-21T04:10:36.021Z,8.20
2023-03-21T04:13:03.370Z,8.20
2023-03-21T04:15:45.607Z,8.20
2023-03-21T04:18:16.219Z,8.20
2023-03-21T04:20:48.695Z,8.30
2023-03-21T04:23:16.280Z,8.20
2023-03-21T04:25:55.952Z,8.20
2023-03-21T04:28:27.279Z,8.20
2023-03-21T04:31:22.655Z,8.20
2023-03-21T04:33:56.034Z,8.20
2023-03-21T04:36:42.982Z,8.20
2023-03-21T04:39:13.392Z,8.30
2023-03-21T04:41:44.622Z,8.20
2023-03-21T04:44:14.491Z,8.30
2023-03-21T04:46:42.888Z,8.30
2023-03-21T04:49:11.845Z,8.20
2023-03-21T04:51:40.063Z,8.20
2023-03-21T04:56:42.823Z,8.20
2023-03-21T04:59:13.933Z,8.20
2023-03-21T05:01:43.650Z,8.30
2023-03-21T05:04:13.414Z,8.20
2023-03-21T05:06:42.691Z,8.20
2023-03-21T05:09:10.355Z,8.20
2023-03-21T05:11:41.048Z,8.20
2023-03-21T05:14:11.254Z,8.10
2023-03-21T05:16:45.064Z,8.20
2023-03-21T05:19:13.870Z,8.10
2023-03-21T05:21:43.427Z,8.10
2023-03-21T05:24:20.350Z,8.10
2023-03-21T05:26:52.503Z,8.10
2023-03-21T05:29:23.212Z,8.10
2023-03-21T05:32:00.225Z,8.00
2023-03-21T05:34:28.727Z,7.90
2023-03-21T05:36:56.682Z,7.80
2023-03-21T05:39:26.988Z,7.90
2023-03-21T05:42:04.328Z,7.90
2023-03-21T05:44:31.666Z,7.90
2023-03-21T05:47:01.236Z,7.90
2023-03-21T05:49:37.796Z,8.00
2023-03-21T05:52:05.940Z,7.90
2023-03-21T05:54:34.001Z,8.00
2023-03-21T05:57:02.495Z,8.00
2023-03-21T05:59:59.038Z,8.10
2023-03-21T06:02:28.109Z,8.00
2023-03-21T06:04:57.404Z,8.00
2023-03-21T06:07:24.876Z,7.90
2023-03-21T06:09:52.081Z,8.00
2023-03-21T06:12:19.759Z,7.90
2023-03-21T06:15:08.852Z,7.90
2023-03-21T06:17:59.481Z,7.90
2023-03-21T06:20:27.212Z,8.00
2023-03-21T06:23:02.282Z,8.00
2023-03-21T06:25:29.867Z,8.10
2023-03-21T06:27:57.588Z,8.20
2023-03-21T06:30:24.759Z,8.20
2023-03-21T06:33:24.743Z,8.20
2023-03-21T06:35:57.029Z,8.20
2023-03-21T06:38:25.589Z,8.20
2023-03-21T06:40:53.701Z,8.20
2023-03-21T06:43:23.043Z,8.20
2023-03-21T06:45:51.044Z,8.20
2023-03-21T06:48:18.633Z,8.20
2023-03-21T06:50:53.404Z,8.20
2023-03-21T06:53:30.446Z,8.30
2023-03-21T06:56:23.782Z,8.20
2023-03-21T06:58:51.615Z,8.20
2023-03-21T07:01:38.928Z,8.10
2023-03-21T07:04:08.503Z,8.20
2023-03-21T07:06:37.298Z,8.30
2023-03-21T07:09:05.944Z,8.30
2023-03-21T07:11:36.136Z,8.40
2023-03-21T07:14:05.021Z,8.50
2023-03-21T07:16:32.898Z,8.50
2023-03-21T07:19:00.734Z,8.40
2023-03-21T07:21:28.233Z,8.30
2023-03-21T07:23:56.062Z,8.40
2023-03-21T07:26:23.229Z,8.40
2023-03-21T07:28:50.721Z,8.50
2023-03-21T07:31:18.032Z,8.40
2023-03-21T07:33:45.679Z,8.40
2023-03-21T07:36:15.528Z,8.50
2023-03-21T07:38:44.218Z,8.60
2023-03-21T07:41:11.784Z,8.90
2023-03-21T07:43:39.629Z,8.80
2023-03-21T07:46:10.292Z,8.80
2023-03-21T07:48:38.110Z,8.80
2023-03-21T07:51:07.059Z,8.70
2023-03-21T07:53:36.232Z,8.70
2023-03-21T07:56:04.136Z,8.50
2023-03-21T07:58:34.187Z,8.60
2023-03-21T08:01:02.328Z,8.60
2023-03-21T08:03:31.045Z,8.60
2023-03-21T08:06:01.275Z,8.60
2023-03-21T08:08:28.775Z,8.60
2023-03-21T08:10:55.977Z,8.70
2023-03-21T08:13:23.774Z,8.90
2023-03-21T08:15:50.930Z,9.20
2023-03-21T08:18:18.554Z,9.20
2023-03-21T08:20:45.719Z,9.10
2023-03-21T08:23:13.941Z,9.10
2023-03-21T08:25:41.140Z,9.20
2023-03-21T08:28:08.614Z,9.50
2023-03-21T08:30:38.133Z,9.70
2023-03-21T08:33:05.615Z,9.60
2023-03-21T08:35:32.933Z,9.40
2023-03-21T08:38:03.003Z,9.70
2023-03-21T08:40:30.342Z,9.90
2023-03-21T08:42:57.809Z,9.80
2023-03-21T08:45:26.993Z,9.80
2023-03-21T08:47:54.946Z,9.60
2023-03-21T08:50:25.050Z,9.70
2023-03-21T08:52:52.503Z,9.60
2023-03-21T08:55:20.123Z,9.40
2023-03-21T08:57:47.628Z,9.30
2023-03-21T09:00:17.873Z,9.30
2023-03-21T09:02:48.384Z,9.10
2023-03-21T09:05:16.916Z,9.30
2023-03-21T09:07:44.852Z,9.40
2023-03-21T09:10:22.387Z,9.70
2023-03-21T09:12:51.941Z,9.90
2023-03-21T09:15:22.021Z,9.60
2023-03-21T09:17:52.986Z,9.50
2023-03-21T09:20:30.755Z,9.70
2023-03-21T09:22:59.778Z,9.60
2023-03-21T09:25:35.232Z,9.70
2023-03-21T09:28:06.453Z,9.90
2023-03-21T09:30:35.789Z,9.90
2023-03-21T09:33:09.686Z,9.90
2023-03-21T09:35:37.720Z,10.20
2023-03-21T09:38:05.899Z,10.00
2023-03-21T09:40:52.666Z,10.00
2023-03-21T09:43:49.453Z,9.80
2023-03-21T09:46:31.757Z,9.90
2023-03-21T09:49:01.418Z,10.00
2023-03-21T09:51:42.950Z,9.90
2023-03-21T09:54:39.414Z,9.90
2023-03-21T09:57:33.045Z,9.80
2023-03-21T10:00:09.441Z,9.90
2023-03-21T10:02:49.634Z,9.80
2023-03-21T10:05:32.071Z,9.70
2023-03-21T10:08:04.652Z,9.90
2023-03-21T10:10:38.016Z,9.80
2023-03-21T10:13:15.703Z,9.70
2023-03-21T10:15:43.307Z,9.40
2023-03-21T10:18:18.728Z,9.50
2023-03-21T10:20:46.862Z,9.60
2023-03-21T10:23:16.854Z,9.60
2023-03-21T10:25:52.814Z,9.50
2023-03-21T10:28:24.135Z,9.40
2023-03-21T10:30:58.821Z,9.30
2023-03-21T10:33:47.857Z,9.40
2023-03-21T10:36:20.531Z,9.70
2023-03-21T10:38:52.683Z,9.90
2023-03-21T10:41:21.087Z,10.30
2023-03-21T10:44:08.711Z,10.20
2023-03-21T10:46:36.526Z,10.40
2023-03-21T10:49:06.996Z,10.70
2023-03-21T10:51:37.845Z,10.80
2023-03-21T10:54:13.870Z,10.80
2023-03-21T10:57:06.214Z,10.80
2023-03-21T10:59:47.253Z,11.00
2023-03-21T11:02:26.485Z,11.50
2023-03-21T11:04:55.720Z,11.20
2023-03-21T11:07:26.007Z,11.10
2023-03-21T11:09:59.278Z,10.60
2023-03-21T11:12:39.281Z,10.40
2023-03-21T11:15:28.504Z,10.30
2023-03-21T11:17:56.458Z,10.20
2023-03-21T11:20:23.626Z,10.30
2023-03-21T11:22:55.942Z,10.20
2023-03-21T11:25:36.333Z,9.70
2023-03-21T11:28:16.483Z,9.70
2023-03-21T11:30:52.633Z,9.60
2023-03-21T11:33:22.107Z,9.60
2023-03-21T11:36:21.767Z,9.50
2023-03-21T11:39:03.831Z,9.50
2023-03-21T11:41:33.601Z,9.60
2023-03-21T11:44:02.868Z,9.60
2023-03-21T11:46:32.084Z,9.80
2023-03-21T11:49:00.576Z,10.10
2023-03-21T11:51:56.667Z,10.10
2023-03-21T11:54:41.824Z,10.20
2023-03-21T11:57:37.204Z,10.30
2023-03-21T12:00:43.966Z,10.40
2023-03-21T12:03:28.906Z,10.10
2023-03-21T12:06:02.384Z,10.40
2023-03-21T12:08:53.576Z,10.40
2023-03-21T12:11:45.730Z,10.10
2023-03-21T12:14:22.655Z,10.10
2023-03-21T12:17:00.870Z,10.10
2023-03-21T12:19:52.138Z,10.10
2023-03-21T12:22:45.537Z,10.40
2023-03-21T12:25:27.844Z,10.30
2023-03-21T12:28:15.281Z,10.20
2023-03-21T12:31:04.395Z,10.20
2023-03-21T12:33:48.782Z,10.20
2023-03-21T12:36:24.747Z,10.40
2023-03-21T12:39:13.102Z,10.70
2023-03-21T12:41:57.093Z,10.60
2023-03-21T12:44:29.166Z,10.80
2023-03-21T12:47:08.907Z,10.80
2023-03-21T12:49:46.292Z,11.00
2023-03-21T12:52:21.752Z,11.00
2023-03-21T12:54:53.513Z,11.10
2023-03-21T12:57:30.647Z,11.00
2023-03-21T13:00:13.238Z,11.30
2023-03-21T13:02:41.595Z,11.80
2023-03-21T13:05:28.003Z,11.70
2023-03-21T13:07:59.450Z,11.20
2023-03-21T13:10:27.283Z,11.20
2023-03-21T13:13:09.984Z,11.20
2023-03-21T13:15:57.521Z,11.30
2023-03-21T13:18:30.688Z,11.20
2023-03-21T13:21:30.143Z,10.90
2023-03-21T13:24:04.461Z,10.80
2023-03-21T13:26:41.153Z,10.80
2023-03-21T13:29:17.001Z,10.90
2023-03-21T13:31:52.163Z,11.20
2023-03-21T13:34:24.099Z,11.20
2023-03-21T13:36:52.867Z,11.60
2023-03-21T13:39:26.552Z,12.00
2023-03-21T13:41:54.907Z,12.40
2023-03-21T13:44:42.032Z,12.20
2023-03-21T13:47:33.925Z,11.90
2023-03-21T13:50:22.856Z,11.90
2023-03-21T13:53:20.949Z,11.70
2023-03-21T13:55:59.893Z,11.50
2023-03-21T13:58:50.373Z,11.90
2023-03-21T14:01:28.355Z,12.10
2023-03-21T14:04:13.428Z,12.20
2023-03-21T14:06:59.164Z,12.10
2023-03-21T14:09:32.905Z,12.50
2023-03-21T14:12:07.545Z,13.00
2023-03-21T14:15:06.835Z,13.30
2023-03-21T14:17:37.529Z,13.10
2023-03-21T14:20:27.284Z,12.80
2023-03-21T14:22:55.193Z,12.30
2023-03-21T14:25:29.179Z,11.90
2023-03-21T14:28:01.261Z,12.00
2023-03-21T14:30:32.367Z,12.20
2023-03-21T14:33:03.510Z,12.40
2023-03-21T14:35:32.488Z,12.10
2023-03-21T14:38:07.355Z,11.90
2023-03-21T14:40:35.715Z,11.80
2023-03-21T14:43:06.759Z,11.80
2023-03-21T14:45:37.124Z,11.80
2023-03-21T14:48:18.814Z,11.80
2023-03-21T14:50:48.341Z,11.80
2023-03-21T14:53:39.969Z,11.70
2023-03-21T14:56:10.568Z,11.30
2023-03-21T14:58:40.369Z,10.90
2023-03-21T15:01:16.185Z,11.10
2023-03-21T15:03:47.707Z,11.10
2023-03-21T15:06:15.179Z,11.10
2023-03-21T15:08:58.059Z,11.00
2023-03-21T15:11:49.052Z,11.10
2023-03-21T15:14:18.269Z,11.30
2023-03-21T15:16:46.134Z,11.50
2023-03-21T15:19:19.602Z,11.50
2023-03-21T15:21:51.910Z,11.50
2023-03-21T15:24:28.008Z,11.70
2023-03-21T15:27:06.256Z,11.70
2023-03-21T15:29:36.933Z,11.80
2023-03-21T15:32:13.778Z,12.00
2023-03-21T15:55:30.594Z,12.20
2023-03-21T15:58:07.748Z,20.60
2023-03-21T16:00:40.036Z,18.00
2023-03-21T16:03:20.926Z,17.80
2023-03-21T16:06:31.402Z,18.50
2023-03-21T16:09:12.171Z,16.90
2023-03-21T16:11:49.024Z,15.10
2023-03-21T16:14:17.558Z,13.80
2023-03-21T16:16:45.948Z,13.10
2023-03-21T16:19:14.466Z,12.30
2023-03-21T16:21:42.156Z,11.50
2023-03-21T16:24:11.728Z,11.30
2023-03-21T16:26:47.987Z,10.90
2023-03-21T16:29:16.222Z,11.30
2023-03-21T16:31:43.803Z,11.30
2023-03-21T16:34:12.585Z,11.10
2023-03-21T16:36:43.336Z,10.80
2023-03-21T16:39:37.470Z,10.60
2023-03-21T16:42:04.688Z,10.40
2023-03-21T16:44:33.752Z,10.30
2023-03-21T16:47:02.396Z,10.20
2023-03-21T16:49:30.328Z,10.00
2023-03-21T16:51:57.540Z,9.90
2023-03-21T16:54:25.764Z,9.80
2023-03-21T16:56:55.762Z,9.70
2023-03-21T16:59:23.546Z,9.50
2023-03-21T17:01:51.264Z,9.40
2023-03-21T17:04:18.897Z,9.30
2023-03-21T17:06:49.379Z,9.20
2023-03-21T17:09:19.840Z,9.00
2023-03-21T17:11:47.296Z,8.90
2023-03-21T17:14:18.803Z,8.80
2023-03-21T17:16:46.500Z,8.70
2023-03-21T17:19:15.615Z,8.60
2023-03-21T17:21:43.129Z,8.50
2023-03-21T17:24:10.959Z,8.40
2023-03-21T17:26:38.428Z,8.30
2023-03-21T17:29:07.334Z,8.20
2023-03-21T17:31:38.097Z,8.10
2023-03-21T17:34:05.735Z,7.80
2023-03-21T17:36:38.899Z,7.80
2023-03-21T17:39:11.357Z,7.80
2023-03-21T17:41:38.734Z,7.70
2023-03-21T17:44:06.411Z,7.60
2023-03-21T17:46:37.459Z,7.60
2023-03-21T17:49:06.221Z,7.50
2023-03-21T17:51:33.707Z,7.40
2023-03-21T17:54:01.253Z,7.40
2023-03-21T17:56:31.169Z,7.30
2023-03-21T17:59:05.066Z,7.30
2023-03-21T18:01:32.349Z,7.20
2023-03-21T18:04:02.937Z,7.20
2023-03-21T18:06:30.963Z,7.10
2023-03-21T18:08:59.691Z,7.10
2023-03-21T18:11:27.895Z,7.00
2023-03-21T18:14:06.801Z,7.00
2023-03-21T18:16:41.455Z,6.90
2023-03-21T18:19:11.194Z,6.80
2023-03-21T18:21:40.664Z,6.80
2023-03-21T18:24:08.790Z,6.70
2023-03-21T18:26:36.338Z,6.60
2023-03-21T18:30:00.363Z,6.60
2023-03-21T18:32:05.141Z,6.50
2023-03-21T18:34:34.891Z,6.40
2023-03-21T18:37:04.136Z,6.40
2023-03-21T18:39:33.263Z,6.30
2023-03-21T18:42:02.477Z,6.30
2023-03-21T18:44:38.634Z,6.20
2023-03-21T18:47:07.074Z,6.20
2023-03-21T18:50:12.120Z,6.10
2023-03-21T18:52:22.617Z,6.10
2023-03-21T18:54:50.448Z,6.00
2023-03-21T18:57:35.880Z,6.00
2023-03-21T19:00:12.554Z,5.90
2023-03-21T19:02:46.297Z,5.90
2023-03-21T19:05:17.698Z,5.90
2023-03-21T19:07:45.708Z,5.80
2023-03-21T19:10:19.623Z,5.80
2023-03-21T19:12:52.392Z,5.80
2023-03-21T19:15:21.620Z,5.70
2023-03-21T19:20:38.261Z,5.70
2023-03-21T19:23:08.184Z,5.70
2023-03-21T19:25:36.988Z,5.60
2023-03-21T19:28:04.468Z,5.60
2023-03-21T19:30:31.937Z,5.50
2023-03-21T19:32:59.256Z,5.40
2023-03-21T19:35:28.249Z,5.50
2023-03-21T19:37:55.804Z,5.40
2023-03-21T19:40:23.853Z,5.40
2023-03-21T19:42:51.376Z,5.30
2023-03-21T19:45:19.094Z,5.30
2023-03-21T19:47:46.520Z,5.30
2023-03-21T19:53:01.341Z,5.20
2023-03-21T19:55:29.203Z,5.20
2023-03-21T19:57:56.529Z,5.10
2023-03-21T20:00:24.107Z,5.10
2023-03-21T20:02:51.779Z,5.00
2023-03-21T20:05:22.405Z,4.90
2023-03-21T20:07:50.069Z,4.90
2023-03-21T20:10:17.895Z,4.90
2023-03-21T20:12:46.099Z,4.80
2023-03-21T20:15:18.287Z,4.80
2023-03-21T20:17:48.157Z,4.80
2023-03-21T20:20:17.807Z,4.80
2023-03-21T20:23:07.837Z,4.70
2023-03-21T20:25:39.979Z,4.70
2023-03-21T20:28:20.236Z,4.70
2023-03-21T20:30:54.518Z,4.70
2023-03-21T20:33:21.761Z,4.70
2023-03-21T20:38:37.681Z,4.60
2023-03-21T20:41:06.580Z,4.60
2023-03-21T20:44:28.165Z,4.60
2023-03-21T20:46:22.012Z,4.60
2023-03-21T20:48:49.798Z,4.60
2023-03-21T20:52:27.470Z,4.60
2023-03-21T20:54:05.379Z,4.50
2023-03-21T20:56:33.182Z,4.50
2023-03-21T20:59:14.998Z,4.50
2023-03-21T21:01:43.196Z,4.50
2023-03-21T21:04:11.683Z,4.50
2023-03-21T21:06:39.246Z,4.40
2023-03-21T21:09:06.419Z,4.40
2023-03-21T21:14:21.373Z,4.40
2023-03-21T21:16:48.865Z,4.40
2023-03-21T21:19:18.797Z,4.40
2023-03-21T21:21:46.222Z,4.40
2023-03-21T21:24:14.707Z,4.40
2023-03-21T21:26:46.265Z,4.30
2023-03-21T21:29:16.760Z,4.30
2023-03-21T21:31:46.799Z,4.30
2023-03-21T21:34:15.717Z,4.30
2023-03-21T21:36:44.992Z,4.30
2023-03-21T21:39:16.055Z,4.20
2023-03-21T21:41:43.604Z,4.20
2023-03-21T21:44:11.347Z,4.20
2023-03-21T21:46:38.943Z,4.20
2023-03-21T21:49:06.764Z,4.20
2023-03-21T21:51:35.063Z,4.10
2023-03-21T21:54:04.364Z,4.20
2023-03-21T21:56:38.499Z,4.20
2023-03-21T21:59:05.860Z,4.20
2023-03-21T22:01:38.591Z,4.10
2023-03-21T22:04:11.088Z,4.10
2023-03-21T22:06:38.547Z,4.10
2023-03-21T22:09:06.924Z,4.00
2023-03-21T22:11:34.571Z,4.00
2023-03-21T22:14:02.184Z,4.00
2023-03-21T22:16:29.812Z,4.00
2023-03-21T22:18:57.128Z,4.10
2023-03-21T22:21:24.580Z,4.10
2023-03-21T22:23:51.773Z,4.10
2023-03-21T22:26:19.410Z,4.10
2023-03-21T22:28:46.637Z,4.20
2023-03-21T22:31:16.299Z,4.20
2023-03-21T22:33:43.988Z,4.20
2023-03-21T22:36:11.958Z,4.20
2023-03-21T22:38:41.783Z,4.20
2023-03-21T22:41:09.227Z,4.10
2023-03-21T22:43:36.426Z,4.10
2023-03-21T22:46:05.472Z,4.00
2023-03-21T22:48:33.649Z,4.00
2023-03-21T22:51:01.380Z,4.00
2023-03-21T22:53:29.042Z,4.00
2023-03-21T22:55:56.718Z,4.00
2023-03-21T22:58:24.238Z,4.00
2023-03-21T23:00:52.050Z,4.00
2023-03-21T23:03:19.368Z,4.00
2023-03-21T23:05:46.998Z,4.00
2023-03-21T23:08:14.278Z,4.00
2023-03-21T23:10:43.763Z,4.00
2023-03-21T23:13:11.306Z,4.00
2023-03-21T23:15:39.809Z,4.00
2023-03-21T23:18:07.172Z,3.90
2023-03-21T23:20:34.748Z,3.90
2023-03-21T23:23:02.823Z,3.90
2023-03-21T23:25:30.431Z,3.90
2023-03-21T23:27:57.765Z,3.90
2023-03-21T23:30:25.863Z,4.00
2023-03-21T23:32:53.049Z,4.00
2023-03-21T23:35:20.607Z,4.00
2023-03-21T23:37:52.092Z,4.00
2023-03-21T23:40:20.434Z,4.00
2023-03-21T23:42:47.674Z,4.00
2023-03-21T23:45:15.585Z,4.10
2023-03-21T23:47:43.007Z,4.10
2023-03-21T23:50:11.183Z,4.10
2023-03-21T23:52:38.856Z,4.10
2023-03-21T23:55:06.644Z,4.10
2023-03-21T23:57:33.865Z,4.00
